Biddeford, ME (04005)

12:33 PM EDT on July 23, 2016 (GMT -0400)
Rotary Dr. | | Change Station

Elev 101 ft 43.53 °N, 70.46 °W | Updated 3 seconds ago

Scattered Clouds
Scattered Clouds
87.1 °F
Feels Like 92 °F
N
5.3
Wind Variable Wind from NNW
Gusts 7.3 mph

Today
High -- | Low -- °F
--% Chance of Precip.
Yesterday
High -- | Low -- °F
Precip. -- in
Pressure 29.75 in
Visibility 10.0 miles
Clouds Scattered Clouds 6000 ft
Scattered Clouds 12000 ft
Heat Index 92 °F
Dew Point 70 °F
Humidity 57%
Rainfall 0.00 in
Snow Depth Not available.
5:22 AM 8:13 PM
Waning Gibbous, 84% visible
METAR KPWM 231551Z 36005KT 10SM SCT060 SCT120 27/18 A2975 RMK AO2 SLP072 T02720178
Pressure 29.75 in
Visibility 10.0 miles
Clouds Scattered Clouds 6000 ft
Scattered Clouds 12000 ft
Heat Index 92 °F
Dew Point 70 °F
Humidity 57%
Rainfall 0.00 in
Snow Depth Not available.
5:22 AM 8:13 PM
Waning Gibbous, 84% visible
METAR KPWM 231551Z 36005KT 10SM SCT060 SCT120 27/18 A2975 RMK AO2 SLP072 T02720178

10-Day Weather Forecast

Almanac

Astronomy

Jul. 23, 2016 Rise Set
Actual Time
Civil Twilight
Nautical Twilight
Astronomical Twilight
Moon
Length of Visible Light
Length of Day
Tomorrow will be .
, % of the Moon is Illuminated

Today's Extremes

State Highs State Lows

Community

WunderPhotos

Upload Photos

1,926,860 photos uploaded!

WunderBlog® & News

Nearby

Air Quality

  Air Quality AQ Index Pollutant
Not available.

Snow Depth

Station Depth Elevation

Earthquake Activity

City Distance Mag. Time & Date
Minimum magnitude displayed is 2.5.

Coastal Water Temperatures

Place Temperature

Stations

Nearby Weather Stations

Station Location Temp. Windchill Dew Point Humidity Wind Precip. Elev Updated Type
                   

Watches & Warnings

There are currently no watches in effect.